Attica, New York
Current Conditions -  °F | °C
As of 3:54 AM on Saturday 29 Nov 2014 (Local Time) from KBUF Reporting Station
Overcast Overcast  
Wind Chill: 17°   Ceiling: 8500
Heat Index: 26°   Visibility: 10mi
Dew Point: 17°   Wind: 9mph
Humidity: 69%   Direction: 180°S
Pressure: 30.15"   Gusts: NA
Location:  42.86°N, 78.28°W
Report Text: KBUF 290854Z 18008KT 10SM FEW035 OVC085 M03/M08 A3015 RMK AO2 SLP221 T10331083 58008
Loading
Personal Weather Stations






























Interactive Weather Map New forecast layout! Learn more

10-Day Weather Forecast

Advertisements
Track Severe Weather on mobile